sensor_id;sensor_type;location;lat;lon;timestamp;pressure;altitude;pressure_sealevel;temperature;humidity
35307;BME280;21420;52.196;21.416;2023-08-07T00:01:56;98588.96;;;15.81;62.06
35307;BME280;21420;52.196;21.416;2023-08-07T00:04:23;98588.95;;;15.77;62.19
35307;BME280;21420;52.196;21.416;2023-08-07T00:06:50;98592.06;;;15.74;62.22
35307;BME280;21420;52.196;21.416;2023-08-07T00:09:16;98591.01;;;15.68;62.18
35307;BME280;21420;52.196;21.416;2023-08-07T00:11:43;98593.16;;;15.66;62.44
35307;BME280;21420;52.196;21.416;2023-08-07T00:14:10;98592.96;;;15.63;62.46
35307;BME280;21420;52.196;21.416;2023-08-07T00:16:36;98603.50;;;15.58;62.41
35307;BME280;21420;52.196;21.416;2023-08-07T00:19:03;98605.00;;;15.50;62.44
35307;BME280;21420;52.196;21.416;2023-08-07T00:21:30;98598.18;;;15.47;62.49
35307;BME280;21420;52.196;21.416;2023-08-07T00:23:56;98591.13;;;15.44;62.40
35307;BME280;21420;52.196;21.416;2023-08-07T00:26:23;98581.45;;;15.36;62.39
35307;BME280;21420;52.196;21.416;2023-08-07T00:28:49;98577.90;;;15.29;62.53
35307;BME280;21420;52.196;21.416;2023-08-07T00:31:16;98562.55;;;15.21;62.43
35307;BME280;21420;52.196;21.416;2023-08-07T00:33:43;98562.97;;;15.18;62.72
35307;BME280;21420;52.196;21.416;2023-08-07T00:36:09;98582.65;;;15.19;63.01
35307;BME280;21420;52.196;21.416;2023-08-07T00:38:36;98592.88;;;15.22;63.13
35307;BME280;21420;52.196;21.416;2023-08-07T00:41:03;98597.64;;;15.25;63.11
35307;BME280;21420;52.196;21.416;2023-08-07T00:43:30;98599.48;;;15.23;63.04
35307;BME280;21420;52.196;21.416;2023-08-07T00:45:56;98597.02;;;15.18;63.21
35307;BME280;21420;52.196;21.416;2023-08-07T00:48:23;98591.86;;;15.13;63.06
35307;BME280;21420;52.196;21.416;2023-08-07T00:50:51;98583.79;;;15.10;63.14
35307;BME280;21420;52.196;21.416;2023-08-07T00:53:18;98575.54;;;15.08;63.34
35307;BME280;21420;52.196;21.416;2023-08-07T00:55:46;98571.80;;;15.04;63.28
35307;BME280;21420;52.196;21.416;2023-08-07T00:58:13;98564.54;;;15.05;63.37
35307;BME280;21420;52.196;21.416;2023-08-07T01:00:40;98561.79;;;15.05;63.51
35307;BME280;21420;52.196;21.416;2023-08-07T01:03:11;98564.59;;;15.01;63.42
35307;BME280;21420;52.196;21.416;2023-08-07T01:05:40;98565.81;;;14.95;63.50
35307;BME280;21420;52.196;21.416;2023-08-07T01:08:07;98561.20;;;14.92;63.65
35307;BME280;21420;52.196;21.416;2023-08-07T01:13:19;98568.14;;;14.91;63.65
35307;BME280;21420;52.196;21.416;2023-08-07T01:15:52;98565.41;;;14.89;63.89
35307;BME280;21420;52.196;21.416;2023-08-07T01:18:23;98564.04;;;14.84;63.76
35307;BME280;21420;52.196;21.416;2023-08-07T01:20:49;98563.84;;;14.80;63.81
35307;BME280;21420;52.196;21.416;2023-08-07T01:23:16;98558.55;;;14.81;64.00
35307;BME280;21420;52.196;21.416;2023-08-07T01:25:43;98557.20;;;14.82;64.14
35307;BME280;21420;52.196;21.416;2023-08-07T01:28:21;98557.61;;;14.82;64.22
35307;BME280;21420;52.196;21.416;2023-08-07T01:30:56;98566.82;;;14.80;64.12
35307;BME280;21420;52.196;21.416;2023-08-07T01:33:34;98581.69;;;14.82;64.32
35307;BME280;21420;52.196;21.416;2023-08-07T01:36:05;98584.29;;;14.82;64.33
35307;BME280;21420;52.196;21.416;2023-08-07T01:38:33;98590.65;;;14.84;64.38
35307;BME280;21420;52.196;21.416;2023-08-07T01:41:02;98591.83;;;14.84;64.35
35307;BME280;21420;52.196;21.416;2023-08-07T01:43:29;98584.18;;;14.84;64.46
35307;BME280;21420;52.196;21.416;2023-08-07T01:46:00;98574.23;;;14.81;64.37
35307;BME280;21420;52.196;21.416;2023-08-07T01:48:26;98569.73;;;14.82;64.47
35307;BME280;21420;52.196;21.416;2023-08-07T01:50:53;98566.71;;;14.84;64.54
35307;BME280;21420;52.196;21.416;2023-08-07T01:53:23;98559.32;;;14.84;64.38
35307;BME280;21420;52.196;21.416;2023-08-07T01:55:49;98550.46;;;14.80;64.38
35307;BME280;21420;52.196;21.416;2023-08-07T01:58:16;98538.67;;;14.76;64.52
35307;BME280;21420;52.196;21.416;2023-08-07T02:00:42;98538.11;;;14.80;64.88
35307;BME280;21420;52.196;21.416;2023-08-07T02:03:09;98555.94;;;14.84;64.71
35307;BME280;21420;52.196;21.416;2023-08-07T02:05:36;98574.03;;;14.85;64.67
35307;BME280;21420;52.196;21.416;2023-08-07T02:08:02;98581.88;;;14.79;64.55
35307;BME280;21420;52.196;21.416;2023-08-07T02:10:30;98584.33;;;14.77;64.84
35307;BME280;21420;52.196;21.416;2023-08-07T02:12:57;98593.86;;;14.76;64.97
35307;BME280;21420;52.196;21.416;2023-08-07T02:18:15;98597.17;;;14.67;64.80
35307;BME280;21420;52.196;21.416;2023-08-07T02:20:42;98603.02;;;14.63;64.82
35307;BME280;21420;52.196;21.416;2023-08-07T02:23:09;98615.80;;;14.59;64.80
35307;BME280;21420;52.196;21.416;2023-08-07T02:25:35;98621.02;;;14.56;65.18
35307;BME280;21420;52.196;21.416;2023-08-07T02:28:02;98625.12;;;14.55;65.07
35307;BME280;21420;52.196;21.416;2023-08-07T02:30:30;98623.14;;;14.53;65.09
35307;BME280;21420;52.196;21.416;2023-08-07T02:32:57;98621.76;;;14.48;65.20
35307;BME280;21420;52.196;21.416;2023-08-07T02:35:24;98611.39;;;14.44;65.03
35307;BME280;21420;52.196;21.416;2023-08-07T02:37:51;98607.40;;;14.42;65.19
35307;BME280;21420;52.196;21.416;2023-08-07T02:40:17;98605.41;;;14.44;65.34
35307;BME280;21420;52.196;21.416;2023-08-07T02:42:45;98605.12;;;14.42;65.28
35307;BME280;21420;52.196;21.416;2023-08-07T02:45:13;98602.29;;;14.43;65.31
35307;BME280;21420;52.196;21.416;2023-08-07T02:47:39;98601.11;;;14.40;65.12
35307;BME280;21420;52.196;21.416;2023-08-07T02:50:06;98596.02;;;14.39;65.50
35307;BME280;21420;52.196;21.416;2023-08-07T02:52:33;98590.84;;;14.37;65.54
35307;BME280;21420;52.196;21.416;2023-08-07T02:55:00;98592.51;;;14.34;65.50
35307;BME280;21420;52.196;21.416;2023-08-07T02:57:26;98598.31;;;14.36;65.32
35307;BME280;21420;52.196;21.416;2023-08-07T02:59:53;98605.40;;;14.36;65.61
35307;BME280;21420;52.196;21.416;2023-08-07T03:02:20;98608.02;;;14.35;65.61
35307;BME280;21420;52.196;21.416;2023-08-07T03:04:47;98608.95;;;14.34;65.78
35307;BME280;21420;52.196;21.416;2023-08-07T03:07:13;98611.88;;;14.34;65.88
35307;BME280;21420;52.196;21.416;2023-08-07T03:09:40;98613.35;;;14.35;65.79
35307;BME280;21420;52.196;21.416;2023-08-07T03:12:07;98617.84;;;14.34;65.81
35307;BME280;21420;52.196;21.416;2023-08-07T03:14:34;98623.12;;;14.33;65.92
35307;BME280;21420;52.196;21.416;2023-08-07T03:17:01;98635.23;;;14.34;65.88
35307;BME280;21420;52.196;21.416;2023-08-07T03:20:48;98634.90;;;14.37;66.03
35307;BME280;21420;52.196;21.416;2023-08-07T03:23:15;98632.39;;;14.34;65.87
35307;BME280;21420;52.196;21.416;2023-08-07T03:25:41;98635.07;;;14.33;66.22
35307;BME280;21420;52.196;21.416;2023-08-07T03:28:08;98631.69;;;14.32;65.99
35307;BME280;21420;52.196;21.416;2023-08-07T03:30:35;98626.91;;;14.30;65.96
35307;BME280;21420;52.196;21.416;2023-08-07T03:33:02;98624.64;;;14.29;66.03
35307;BME280;21420;52.196;21.416;2023-08-07T03:35:29;98635.74;;;14.26;66.13
35307;BME280;21420;52.196;21.416;2023-08-07T03:37:56;98639.54;;;14.24;66.20
35307;BME280;21420;52.196;21.416;2023-08-07T03:40:23;98643.01;;;14.23;66.18
35307;BME280;21420;52.196;21.416;2023-08-07T03:42:50;98643.16;;;14.23;66.22
35307;BME280;21420;52.196;21.416;2023-08-07T03:45:17;98640.87;;;14.23;66.45
35307;BME280;21420;52.196;21.416;2023-08-07T03:47:44;98627.42;;;14.24;66.27
35307;BME280;21420;52.196;21.416;2023-08-07T03:50:10;98618.92;;;14.24;66.31
35307;BME280;21420;52.196;21.416;2023-08-07T03:52:38;98625.45;;;14.25;66.57
35307;BME280;21420;52.196;21.416;2023-08-07T03:55:05;98628.52;;;14.26;66.46
35307;BME280;21420;52.196;21.416;2023-08-07T03:57:31;98631.58;;;14.26;66.27
35307;BME280;21420;52.196;21.416;2023-08-07T03:59:58;98636.56;;;14.21;66.35
35307;BME280;21420;52.196;21.416;2023-08-07T04:02:27;98641.57;;;14.27;66.41
35307;BME280;21420;52.196;21.416;2023-08-07T04:04:55;98641.23;;;14.31;66.63
35307;BME280;21420;52.196;21.416;2023-08-07T04:07:22;98637.96;;;14.36;66.50
35307;BME280;21420;52.196;21.416;2023-08-07T04:09:48;98632.65;;;14.30;66.42
35307;BME280;21420;52.196;21.416;2023-08-07T04:12:15;98633.70;;;14.25;66.61
35307;BME280;21420;52.196;21.416;2023-08-07T04:14:42;98639.91;;;14.27;66.66
35307;BME280;21420;52.196;21.416;2023-08-07T04:17:09;98647.48;;;14.25;66.57
35307;BME280;21420;52.196;21.416;2023-08-07T04:19:37;98652.80;;;14.18;66.51
35307;BME280;21420;52.196;21.416;2023-08-07T04:22:04;98657.27;;;14.15;66.63
35307;BME280;21420;52.196;21.416;2023-08-07T04:24:31;98672.69;;;14.18;66.71
35307;BME280;21420;52.196;21.416;2023-08-07T04:26:57;98678.27;;;14.18;66.75
35307;BME280;21420;52.196;21.416;2023-08-07T04:29:24;98687.69;;;14.19;66.73
35307;BME280;21420;52.196;21.416;2023-08-07T04:31:51;98692.63;;;14.22;66.68
35307;BME280;21420;52.196;21.416;2023-08-07T04:34:18;98699.88;;;14.22;66.68
35307;BME280;21420;52.196;21.416;2023-08-07T04:36:45;98697.44;;;14.20;66.63
35307;BME280;21420;52.196;21.416;2023-08-07T04:39:12;98699.48;;;14.22;67.02
35307;BME280;21420;52.196;21.416;2023-08-07T04:41:39;98703.23;;;14.25;66.97
35307;BME280;21420;52.196;21.416;2023-08-07T04:44:07;98708.01;;;14.29;66.88
35307;BME280;21420;52.196;21.416;2023-08-07T04:46:33;98706.48;;;14.33;66.95
35307;BME280;21420;52.196;21.416;2023-08-07T04:49:00;98706.64;;;14.36;67.01
35307;BME280;21420;52.196;21.416;2023-08-07T04:51:27;98707.65;;;14.39;67.04
35307;BME280;21420;52.196;21.416;2023-08-07T04:53:57;98710.70;;;14.41;67.08
35307;BME280;21420;52.196;21.416;2023-08-07T04:56:24;98708.83;;;14.39;66.96
35307;BME280;21420;52.196;21.416;2023-08-07T04:58:50;98709.37;;;14.41;66.83
35307;BME280;21420;52.196;21.416;2023-08-07T05:01:17;98712.04;;;14.41;67.03
35307;BME280;21420;52.196;21.416;2023-08-07T05:03:44;98709.67;;;14.42;67.01
35307;BME280;21420;52.196;21.416;2023-08-07T05:06:11;98712.80;;;14.46;67.07
35307;BME280;21420;52.196;21.416;2023-08-07T05:08:38;98710.11;;;14.49;67.07
35307;BME280;21420;52.196;21.416;2023-08-07T05:11:05;98708.52;;;14.51;67.01
35307;BME280;21420;52.196;21.416;2023-08-07T05:13:31;98707.27;;;14.54;66.93
35307;BME280;21420;52.196;21.416;2023-08-07T05:15:58;98709.77;;;14.58;67.25
35307;BME280;21420;52.196;21.416;2023-08-07T05:18:24;98705.64;;;14.63;67.23
35307;BME280;21420;52.196;21.416;2023-08-07T05:20:51;98704.25;;;14.71;67.02
35307;BME280;21420;52.196;21.416;2023-08-07T05:23:18;98703.09;;;14.79;67.21
35307;BME280;21420;52.196;21.416;2023-08-07T05:25:45;98702.70;;;14.90;67.23
35307;BME280;21420;52.196;21.416;2023-08-07T05:28:15;98695.77;;;15.00;67.25
35307;BME280;21420;52.196;21.416;2023-08-07T05:30:42;98697.13;;;15.06;67.08
35307;BME280;21420;52.196;21.416;2023-08-07T05:33:08;98700.47;;;15.04;66.88
35307;BME280;21420;52.196;21.416;2023-08-07T05:35:38;98697.55;;;15.02;66.91
35307;BME280;21420;52.196;21.416;2023-08-07T05:38:05;98700.96;;;15.00;66.75
35307;BME280;21420;52.196;21.416;2023-08-07T05:40:32;98701.48;;;14.95;66.61
35307;BME280;21420;52.196;21.416;2023-08-07T05:43:00;98702.23;;;14.89;66.61
35307;BME280;21420;52.196;21.416;2023-08-07T05:45:27;98704.39;;;14.86;66.88
35307;BME280;21420;52.196;21.416;2023-08-07T05:47:53;98702.13;;;14.83;66.92
35307;BME280;21420;52.196;21.416;2023-08-07T05:50:20;98698.27;;;14.82;67.00
35307;BME280;21420;52.196;21.416;2023-08-07T05:52:47;98699.38;;;14.80;66.98
35307;BME280;21420;52.196;21.416;2023-08-07T05:55:13;98699.78;;;14.79;66.70
35307;BME280;21420;52.196;21.416;2023-08-07T05:57:40;98700.88;;;14.82;66.81
35307;BME280;21420;52.196;21.416;2023-08-07T06:00:08;98701.16;;;14.86;66.83
35307;BME280;21420;52.196;21.416;2023-08-07T06:02:40;98704.59;;;14.90;66.87
35307;BME280;21420;52.196;21.416;2023-08-07T06:05:07;98701.11;;;14.90;66.83
35307;BME280;21420;52.196;21.416;2023-08-07T06:07:35;98692.66;;;14.95;66.81
35307;BME280;21420;52.196;21.416;2023-08-07T06:10:02;98691.73;;;15.04;66.87
35307;BME280;21420;52.196;21.416;2023-08-07T06:12:29;98692.76;;;15.12;66.96
35307;BME280;21420;52.196;21.416;2023-08-07T06:14:56;98702.04;;;15.22;66.99
35307;BME280;21420;52.196;21.416;2023-08-07T06:17:23;98707.35;;;15.28;66.84
35307;BME280;21420;52.196;21.416;2023-08-07T06:19:50;98704.96;;;15.30;66.82
35307;BME280;21420;52.196;21.416;2023-08-07T06:22:17;98704.21;;;15.34;66.97
35307;BME280;21420;52.196;21.416;2023-08-07T06:24:43;98702.11;;;15.41;67.09
35307;BME280;21420;52.196;21.416;2023-08-07T06:27:10;98696.91;;;15.49;66.95
35307;BME280;21420;52.196;21.416;2023-08-07T06:29:37;98696.69;;;15.55;66.97
35307;BME280;21420;52.196;21.416;2023-08-07T06:32:04;98700.84;;;15.57;66.81
35307;BME280;21420;52.196;21.416;2023-08-07T06:34:30;98703.34;;;15.60;66.76
35307;BME280;21420;52.196;21.416;2023-08-07T06:36:57;98707.64;;;15.62;66.92
35307;BME280;21420;52.196;21.416;2023-08-07T06:39:24;98710.29;;;15.58;66.52
35307;BME280;21420;52.196;21.416;2023-08-07T06:41:50;98709.28;;;15.48;66.41
35307;BME280;21420;52.196;21.416;2023-08-07T06:44:19;98710.98;;;15.45;66.32
35307;BME280;21420;52.196;21.416;2023-08-07T06:46:45;98712.58;;;15.34;66.21
35307;BME280;21420;52.196;21.416;2023-08-07T06:49:12;98712.73;;;15.25;66.26
35307;BME280;21420;52.196;21.416;2023-08-07T06:51:38;98715.30;;;15.19;66.23
35307;BME280;21420;52.196;21.416;2023-08-07T06:54:05;98717.31;;;15.12;66.13
35307;BME280;21420;52.196;21.416;2023-08-07T06:56:32;98716.46;;;15.11;66.50
35307;BME280;21420;52.196;21.416;2023-08-07T06:58:59;98716.96;;;15.18;66.64
35307;BME280;21420;52.196;21.416;2023-08-07T07:01:26;98724.44;;;15.28;66.73
35307;BME280;21420;52.196;21.416;2023-08-07T07:03:52;98723.77;;;15.42;66.78
35307;BME280;21420;52.196;21.416;2023-08-07T07:06:19;98727.23;;;15.58;66.86
35307;BME280;21420;52.196;21.416;2023-08-07T07:08:47;98729.77;;;15.74;67.05
35307;BME280;21420;52.196;21.416;2023-08-07T07:11:14;98730.84;;;15.86;67.05
35307;BME280;21420;52.196;21.416;2023-08-07T07:13:41;98731.14;;;15.94;66.77
35307;BME280;21420;52.196;21.416;2023-08-07T07:16:08;98735.72;;;15.93;66.46
35307;BME280;21420;52.196;21.416;2023-08-07T07:18:37;98738.58;;;15.85;66.37
35307;BME280;21420;52.196;21.416;2023-08-07T07:21:04;98740.06;;;15.78;66.39
35307;BME280;21420;52.196;21.416;2023-08-07T07:23:31;98744.32;;;15.69;66.08
35307;BME280;21420;52.196;21.416;2023-08-07T07:25:57;98752.02;;;15.62;66.00
35307;BME280;21420;52.196;21.416;2023-08-07T07:28:24;98745.52;;;15.59;66.29
35307;BME280;21420;52.196;21.416;2023-08-07T07:30:51;98749.63;;;15.48;66.00
35307;BME280;21420;52.196;21.416;2023-08-07T07:33:18;98751.65;;;15.42;66.17
35307;BME280;21420;52.196;21.416;2023-08-07T07:35:44;98751.64;;;15.44;66.09
35307;BME280;21420;52.196;21.416;2023-08-07T07:38:11;98741.86;;;15.61;66.37
35307;BME280;21420;52.196;21.416;2023-08-07T07:40:38;98745.29;;;16.11;67.00
35307;BME280;21420;52.196;21.416;2023-08-07T07:43:05;98748.16;;;16.76;67.18
35307;BME280;21420;52.196;21.416;2023-08-07T07:45:31;98752.00;;;17.30;67.08
35307;BME280;21420;52.196;21.416;2023-08-07T07:48:00;98753.16;;;17.87;66.68
35307;BME280;21420;52.196;21.416;2023-08-07T07:50:27;98747.21;;;18.21;66.28
35307;BME280;21420;52.196;21.416;2023-08-07T07:52:54;98748.55;;;18.29;65.84
35307;BME280;21420;52.196;21.416;2023-08-07T07:55:21;98739.66;;;18.19;65.19
35307;BME280;21420;52.196;21.416;2023-08-07T07:57:47;98743.76;;;18.20;65.15
35307;BME280;21420;52.196;21.416;2023-08-07T08:00:14;98747.22;;;17.96;64.53
35307;BME280;21420;52.196;21.416;2023-08-07T08:02:41;98755.05;;;17.65;64.55
35307;BME280;21420;52.196;21.416;2023-08-07T08:05:11;98749.86;;;17.40;64.42
35307;BME280;21420;52.196;21.416;2023-08-07T08:07:39;98762.00;;;17.18;64.43
35307;BME280;21420;52.196;21.416;2023-08-07T08:10:08;98762.13;;;17.15;64.57
35307;BME280;21420;52.196;21.416;2023-08-07T08:12:35;98760.52;;;17.27;64.93
35307;BME280;21420;52.196;21.416;2023-08-07T08:15:03;98757.91;;;17.32;64.83
35307;BME280;21420;52.196;21.416;2023-08-07T08:17:30;98763.94;;;17.26;64.46
35307;BME280;21420;52.196;21.416;2023-08-07T08:19:57;98768.42;;;17.22;64.52
35307;BME280;21420;52.196;21.416;2023-08-07T08:22:25;98775.04;;;17.07;64.42
35307;BME280;21420;52.196;21.416;2023-08-07T08:24:52;98783.65;;;16.86;64.33
35307;BME280;21420;52.196;21.416;2023-08-07T08:27:18;98786.89;;;16.66;64.23
35307;BME280;21420;52.196;21.416;2023-08-07T08:29:45;98785.42;;;16.46;64.20
35307;BME280;21420;52.196;21.416;2023-08-07T08:32:12;98779.06;;;16.31;64.15
35307;BME280;21420;52.196;21.416;2023-08-07T08:34:39;98782.95;;;16.30;64.54
35307;BME280;21420;52.196;21.416;2023-08-07T08:37:06;98785.08;;;16.42;64.75
35307;BME280;21420;52.196;21.416;2023-08-07T08:39:33;98782.51;;;16.71;65.12
35307;BME280;21420;52.196;21.416;2023-08-07T08:42:00;98793.21;;;17.56;65.71
35307;BME280;21420;52.196;21.416;2023-08-07T08:44:29;98793.55;;;18.35;65.54
35307;BME280;21420;52.196;21.416;2023-08-07T08:46:59;98793.98;;;18.52;64.83
35307;BME280;21420;52.196;21.416;2023-08-07T08:49:35;98796.61;;;18.52;64.43
35307;BME280;21420;52.196;21.416;2023-08-07T08:52:04;98804.73;;;18.29;63.69
35307;BME280;21420;52.196;21.416;2023-08-07T08:54:32;98805.86;;;18.00;63.48
35307;BME280;21420;52.196;21.416;2023-08-07T08:56:59;98810.20;;;17.77;63.48
35307;BME280;21420;52.196;21.416;2023-08-07T08:59:27;98808.09;;;17.61;63.41
35307;BME280;21420;52.196;21.416;2023-08-07T09:01:54;98819.78;;;17.47;63.18
35307;BME280;21420;52.196;21.416;2023-08-07T09:04:20;98821.41;;;17.34;63.47
35307;BME280;21420;52.196;21.416;2023-08-07T09:06:47;98832.16;;;17.24;63.31
35307;BME280;21420;52.196;21.416;2023-08-07T09:09:16;98833.98;;;17.13;63.45
35307;BME280;21420;52.196;21.416;2023-08-07T09:11:45;98839.91;;;17.12;63.58
35307;BME280;21420;52.196;21.416;2023-08-07T09:14:16;98841.88;;;17.19;63.81
35307;BME280;21420;52.196;21.416;2023-08-07T09:16:48;98846.00;;;17.23;63.68
35307;BME280;21420;52.196;21.416;2023-08-07T09:19:15;98851.56;;;17.21;63.65
35307;BME280;21420;52.196;21.416;2023-08-07T09:21:42;98860.01;;;17.16;63.62
35307;BME280;21420;52.196;21.416;2023-08-07T09:24:09;98863.46;;;17.23;63.55
35307;BME280;21420;52.196;21.416;2023-08-07T09:26:36;98867.14;;;17.52;64.00
35307;BME280;21420;52.196;21.416;2023-08-07T09:29:02;98868.74;;;17.81;64.12
35307;BME280;21420;52.196;21.416;2023-08-07T09:31:30;98868.41;;;18.10;64.23
35307;BME280;21420;52.196;21.416;2023-08-07T09:34:03;98865.52;;;18.66;64.35
35307;BME280;21420;52.196;21.416;2023-08-07T09:36:32;98872.31;;;19.48;64.57
35307;BME280;21420;52.196;21.416;2023-08-07T09:39:02;98872.57;;;20.59;64.98
35307;BME280;21420;52.196;21.416;2023-08-07T09:41:30;98869.80;;;22.33;65.77
35307;BME280;21420;52.196;21.416;2023-08-07T09:43:57;98871.42;;;23.88;65.16
35307;BME280;21420;52.196;21.416;2023-08-07T09:46:27;98866.87;;;24.92;64.16
35307;BME280;21420;52.196;21.416;2023-08-07T09:48:57;98871.63;;;25.86;63.54
35307;BME280;21420;52.196;21.416;2023-08-07T09:51:25;98869.64;;;26.74;62.65
35307;BME280;21420;52.196;21.416;2023-08-07T09:53:52;98869.38;;;27.28;61.19
35307;BME280;21420;52.196;21.416;2023-08-07T09:56:19;98869.18;;;26.85;59.24
35307;BME280;21420;52.196;21.416;2023-08-07T09:58:48;98872.77;;;26.21;58.66
35307;BME280;21420;52.196;21.416;2023-08-07T10:01:16;98864.27;;;25.57;58.28
35307;BME280;21420;52.196;21.416;2023-08-07T10:03:44;98873.31;;;24.90;57.69
35307;BME280;21420;52.196;21.416;2023-08-07T10:06:12;98876.77;;;24.16;57.52
35307;BME280;21420;52.196;21.416;2023-08-07T10:08:39;98870.11;;;23.67;57.65
35307;BME280;21420;52.196;21.416;2023-08-07T10:11:08;98869.12;;;23.32;57.57
35307;BME280;21420;52.196;21.416;2023-08-07T10:13:37;98875.44;;;23.21;57.84
35307;BME280;21420;52.196;21.416;2023-08-07T10:16:06;98875.60;;;22.98;57.94
35307;BME280;21420;52.196;21.416;2023-08-07T10:18:34;98881.00;;;22.72;57.86
35307;BME280;21420;52.196;21.416;2023-08-07T10:21:04;98882.06;;;22.36;57.62
35307;BME280;21420;52.196;21.416;2023-08-07T10:23:33;98883.42;;;22.16;57.85
35307;BME280;21420;52.196;21.416;2023-08-07T10:26:02;98882.04;;;22.03;57.63
35307;BME280;21420;52.196;21.416;2023-08-07T10:28:33;98882.67;;;21.89;57.51
35307;BME280;21420;52.196;21.416;2023-08-07T10:31:08;98884.23;;;22.09;58.09
35307;BME280;21420;52.196;21.416;2023-08-07T10:33:36;98878.92;;;22.70;58.90
35307;BME280;21420;52.196;21.416;2023-08-07T10:36:08;98881.73;;;23.65;58.91
35307;BME280;21420;52.196;21.416;2023-08-07T10:38:36;98871.48;;;24.30;58.42
35307;BME280;21420;52.196;21.416;2023-08-07T10:41:12;98864.32;;;24.17;57.23
35307;BME280;21420;52.196;21.416;2023-08-07T10:43:44;98860.32;;;24.24;57.16
35307;BME280;21420;52.196;21.416;2023-08-07T10:46:14;98866.39;;;24.09;56.43
35307;BME280;21420;52.196;21.416;2023-08-07T10:48:43;98861.88;;;23.93;56.26
35307;BME280;21420;52.196;21.416;2023-08-07T10:51:14;98866.71;;;23.92;56.58
35307;BME280;21420;52.196;21.416;2023-08-07T10:53:46;98871.83;;;24.18;57.10
35307;BME280;21420;52.196;21.416;2023-08-07T10:56:18;98875.90;;;24.48;57.01
35307;BME280;21420;52.196;21.416;2023-08-07T10:58:50;98880.09;;;24.60;56.45
35307;BME280;21420;52.196;21.416;2023-08-07T11:01:20;98883.51;;;24.66;55.94
35307;BME280;21420;52.196;21.416;2023-08-07T11:03:52;98890.48;;;24.30;55.02
35307;BME280;21420;52.196;21.416;2023-08-07T11:06:30;98890.11;;;23.84;54.96
35307;BME280;21420;52.196;21.416;2023-08-07T11:09:00;98883.13;;;23.49;54.75
35307;BME280;21420;52.196;21.416;2023-08-07T11:11:34;98882.73;;;22.96;54.29
35307;BME280;21420;52.196;21.416;2023-08-07T11:14:17;98887.23;;;22.28;53.94
35307;BME280;21420;52.196;21.416;2023-08-07T11:16:46;98900.70;;;21.68;54.13
35307;BME280;21420;52.196;21.416;2023-08-07T11:19:14;98907.60;;;21.33;54.41
35307;BME280;21420;52.196;21.416;2023-08-07T11:21:42;98913.41;;;21.08;54.54
35307;BME280;21420;52.196;21.416;2023-08-07T11:24:13;98908.73;;;20.86;54.78
35307;BME280;21420;52.196;21.416;2023-08-07T11:26:42;98909.23;;;20.73;55.10
35307;BME280;21420;52.196;21.416;2023-08-07T11:29:17;98900.61;;;20.67;55.19
35307;BME280;21420;52.196;21.416;2023-08-07T11:31:44;98891.12;;;20.71;55.28
35307;BME280;21420;52.196;21.416;2023-08-07T11:34:11;98896.03;;;21.39;56.30
35307;BME280;21420;52.196;21.416;2023-08-07T11:36:42;98896.14;;;22.20;56.31
35307;BME280;21420;52.196;21.416;2023-08-07T11:39:10;98905.77;;;22.43;55.64
35307;BME280;21420;52.196;21.416;2023-08-07T11:41:36;98909.95;;;22.40;54.93
35307;BME280;21420;52.196;21.416;2023-08-07T11:44:03;98913.56;;;22.23;54.55
35307;BME280;21420;52.196;21.416;2023-08-07T11:46:30;98907.73;;;21.94;54.30
35307;BME280;21420;52.196;21.416;2023-08-07T11:48:57;98907.51;;;21.77;54.43
35307;BME280;21420;52.196;21.416;2023-08-07T11:51:24;98909.52;;;21.67;54.45
35307;BME280;21420;52.196;21.416;2023-08-07T11:53:50;98913.14;;;21.55;54.47
35307;BME280;21420;52.196;21.416;2023-08-07T11:56:23;98912.67;;;21.62;54.97
35307;BME280;21420;52.196;21.416;2023-08-07T11:58:51;98921.55;;;21.90;54.99
35307;BME280;21420;52.196;21.416;2023-08-07T12:01:20;98918.89;;;22.50;55.72
35307;BME280;21420;52.196;21.416;2023-08-07T12:06:35;98918.48;;;23.72;54.88
35307;BME280;21420;52.196;21.416;2023-08-07T12:09:02;98923.14;;;23.66;54.23
35307;BME280;21420;52.196;21.416;2023-08-07T12:11:29;98932.84;;;23.36;53.70
35307;BME280;21420;52.196;21.416;2023-08-07T12:14:00;98930.33;;;23.01;53.41
35307;BME280;21420;52.196;21.416;2023-08-07T12:16:32;98933.21;;;22.83;53.35
35307;BME280;21420;52.196;21.416;2023-08-07T12:18:59;98928.72;;;23.14;54.09
35307;BME280;21420;52.196;21.416;2023-08-07T12:21:27;98940.85;;;23.50;53.98
35307;BME280;21420;52.196;21.416;2023-08-07T12:23:55;98941.73;;;23.62;53.57
35307;BME280;21420;52.196;21.416;2023-08-07T12:26:23;98948.38;;;23.49;53.25
35307;BME280;21420;52.196;21.416;2023-08-07T12:28:50;98946.77;;;23.62;53.36
35307;BME280;21420;52.196;21.416;2023-08-07T12:31:18;98950.74;;;23.64;53.00
35307;BME280;21420;52.196;21.416;2023-08-07T12:33:45;98955.76;;;23.59;53.17
35307;BME280;21420;52.196;21.416;2023-08-07T12:36:12;98959.66;;;23.32;52.63
35307;BME280;21420;52.196;21.416;2023-08-07T12:38:43;98968.26;;;22.93;52.34
35307;BME280;21420;52.196;21.416;2023-08-07T12:41:10;98973.03;;;22.57;52.35
35307;BME280;21420;52.196;21.416;2023-08-07T12:43:40;98981.89;;;22.31;52.43
35307;BME280;21420;52.196;21.416;2023-08-07T12:46:07;98980.82;;;22.09;52.54
35307;BME280;21420;52.196;21.416;2023-08-07T12:48:37;98985.56;;;21.92;52.51
35307;BME280;21420;52.196;21.416;2023-08-07T12:51:03;98990.59;;;21.69;52.43
35307;BME280;21420;52.196;21.416;2023-08-07T12:53:30;98991.90;;;21.47;52.56
35307;BME280;21420;52.196;21.416;2023-08-07T12:55:58;98988.21;;;21.20;52.52
35307;BME280;21420;52.196;21.416;2023-08-07T12:58:25;98993.14;;;20.97;52.61
35307;BME280;21420;52.196;21.416;2023-08-07T13:00:54;99000.27;;;20.77;52.63
35307;BME280;21420;52.196;21.416;2023-08-07T13:03:21;99005.70;;;20.94;53.52